sensor_id;sensor_type;location;lat;lon;timestamp;pressure;altitude;pressure_sealevel;temperature;humidity
70841;BME280;58465;51.534;9.934;2023-06-22T00:00:59;100218.41;;;21.56;77.69
70841;BME280;58465;51.534;9.934;2023-06-22T00:03:26;100219.63;;;21.64;77.16
70841;BME280;58465;51.534;9.934;2023-06-22T00:05:51;100219.44;;;21.67;76.80
70841;BME280;58465;51.534;9.934;2023-06-22T00:08:17;100223.91;;;21.68;77.02
70841;BME280;58465;51.534;9.934;2023-06-22T00:10:43;100224.78;;;21.69;76.90
70841;BME280;58465;51.534;9.934;2023-06-22T00:13:10;100222.84;;;21.71;76.87
70841;BME280;58465;51.534;9.934;2023-06-22T00:15:36;100223.59;;;21.73;77.03
70841;BME280;58465;51.534;9.934;2023-06-22T00:18:02;100224.47;;;21.73;76.69
70841;BME280;58465;51.534;9.934;2023-06-22T00:20:28;100212.09;;;21.55;76.69
70841;BME280;58465;51.534;9.934;2023-06-22T00:22:54;100205.88;;;21.53;76.83
70841;BME280;58465;51.534;9.934;2023-06-22T00:25:20;100203.84;;;21.57;76.37
70841;BME280;58465;51.534;9.934;2023-06-22T00:27:46;100202.00;;;21.57;76.51
70841;BME280;58465;51.534;9.934;2023-06-22T00:30:11;100192.97;;;21.57;76.29
70841;BME280;58465;51.534;9.934;2023-06-22T00:32:36;100196.75;;;21.54;76.51
70841;BME280;58465;51.534;9.934;2023-06-22T00:35:02;100194.63;;;21.59;76.56
70841;BME280;58465;51.534;9.934;2023-06-22T00:37:27;100192.97;;;21.57;76.60
70841;BME280;58465;51.534;9.934;2023-06-22T00:39:55;100203.91;;;21.69;75.62
70841;BME280;58465;51.534;9.934;2023-06-22T00:42:21;100201.84;;;21.73;75.54
70841;BME280;58465;51.534;9.934;2023-06-22T00:44:46;100197.78;;;21.80;75.18
70841;BME280;58465;51.534;9.934;2023-06-22T00:47:14;100196.56;;;21.84;75.27
70841;BME280;58465;51.534;9.934;2023-06-22T00:49:41;100187.44;;;21.85;75.22
70841;BME280;58465;51.534;9.934;2023-06-22T00:52:07;100188.78;;;21.92;74.98
70841;BME280;58465;51.534;9.934;2023-06-22T00:54:40;100185.50;;;21.87;75.18
70841;BME280;58465;51.534;9.934;2023-06-22T00:57:11;100178.03;;;21.91;75.08
70841;BME280;58465;51.534;9.934;2023-06-22T00:59:37;100173.84;;;21.99;75.00
70841;BME280;58465;51.534;9.934;2023-06-22T01:02:02;100181.28;;;21.96;74.57
70841;BME280;58465;51.534;9.934;2023-06-22T01:04:35;100176.94;;;21.93;74.71
70841;BME280;58465;51.534;9.934;2023-06-22T01:07:17;100165.06;;;21.94;74.42
70841;BME280;58465;51.534;9.934;2023-06-22T01:10:03;100167.69;;;21.96;74.24
70841;BME280;58465;51.534;9.934;2023-06-22T01:12:35;100157.88;;;21.93;74.17
70841;BME280;58465;51.534;9.934;2023-06-22T01:15:10;100159.19;;;21.88;74.31
70841;BME280;58465;51.534;9.934;2023-06-22T01:17:40;100169.09;;;21.89;74.43
70841;BME280;58465;51.534;9.934;2023-06-22T01:20:07;100173.31;;;21.80;74.44
70841;BME280;58465;51.534;9.934;2023-06-22T01:22:46;100167.38;;;21.73;74.48
70841;BME280;58465;51.534;9.934;2023-06-22T01:25:20;100171.50;;;21.66;74.92
70841;BME280;58465;51.534;9.934;2023-06-22T01:30:41;100156.84;;;21.55;75.43
70841;BME280;58465;51.534;9.934;2023-06-22T01:33:10;100159.56;;;21.55;75.29
70841;BME280;58465;51.534;9.934;2023-06-22T01:35:37;100157.44;;;21.60;75.13
70841;BME280;58465;51.534;9.934;2023-06-22T01:38:03;100146.81;;;21.42;75.87
70841;BME280;58465;51.534;9.934;2023-06-22T01:40:29;100143.59;;;21.50;75.78
70841;BME280;58465;51.534;9.934;2023-06-22T01:42:56;100144.25;;;21.54;75.72
70841;BME280;58465;51.534;9.934;2023-06-22T01:45:21;100142.97;;;21.59;75.48
70841;BME280;58465;51.534;9.934;2023-06-22T01:47:47;100143.50;;;21.52;76.01
70841;BME280;58465;51.534;9.934;2023-06-22T01:50:12;100150.25;;;21.59;75.47
70841;BME280;58465;51.534;9.934;2023-06-22T01:52:37;100158.22;;;21.62;75.53
70841;BME280;58465;51.534;9.934;2023-06-22T01:55:03;100154.91;;;21.57;75.59
70841;BME280;58465;51.534;9.934;2023-06-22T01:57:29;100152.09;;;21.58;75.18
70841;BME280;58465;51.534;9.934;2023-06-22T02:00:07;100143.50;;;21.52;76.05
70841;BME280;58465;51.534;9.934;2023-06-22T02:02:51;100146.50;;;21.47;76.40
70841;BME280;58465;51.534;9.934;2023-06-22T02:05:19;100153.22;;;21.41;76.67
70841;BME280;58465;51.534;9.934;2023-06-22T02:07:47;100152.03;;;21.45;76.24
70841;BME280;58465;51.534;9.934;2023-06-22T02:10:16;100151.38;;;21.42;76.39
70841;BME280;58465;51.534;9.934;2023-06-22T02:12:44;100159.44;;;21.29;76.54
70841;BME280;58465;51.534;9.934;2023-06-22T02:15:11;100172.53;;;21.37;75.90
70841;BME280;58465;51.534;9.934;2023-06-22T02:17:38;100167.97;;;21.09;75.88
70841;BME280;58465;51.534;9.934;2023-06-22T02:20:03;100177.69;;;21.27;75.26
70841;BME280;58465;51.534;9.934;2023-06-22T02:22:31;100187.59;;;21.28;75.05
70841;BME280;58465;51.534;9.934;2023-06-22T02:24:56;100190.88;;;21.33;75.07
70841;BME280;58465;51.534;9.934;2023-06-22T02:27:21;100193.56;;;21.47;74.23
70841;BME280;58465;51.534;9.934;2023-06-22T02:29:46;100200.06;;;21.45;74.85
70841;BME280;58465;51.534;9.934;2023-06-22T02:32:11;100204.34;;;21.49;74.89
70841;BME280;58465;51.534;9.934;2023-06-22T02:34:37;100200.94;;;21.45;74.85
70841;BME280;58465;51.534;9.934;2023-06-22T02:37:02;100204.44;;;21.47;74.79
70841;BME280;58465;51.534;9.934;2023-06-22T02:39:27;100217.16;;;21.61;74.22
70841;BME280;58465;51.534;9.934;2023-06-22T02:41:54;100225.75;;;21.68;74.36
70841;BME280;58465;51.534;9.934;2023-06-22T02:44:20;100226.44;;;21.71;73.97
70841;BME280;58465;51.534;9.934;2023-06-22T02:46:45;100222.44;;;21.63;74.82
70841;BME280;58465;51.534;9.934;2023-06-22T02:49:11;100227.59;;;21.67;74.52
70841;BME280;58465;51.534;9.934;2023-06-22T02:51:44;100239.16;;;21.71;74.43
70841;BME280;58465;51.534;9.934;2023-06-22T02:54:10;100226.53;;;21.70;74.13
70841;BME280;58465;51.534;9.934;2023-06-22T02:56:35;100229.16;;;21.71;74.16
70841;BME280;58465;51.534;9.934;2023-06-22T02:59:02;100231.47;;;21.63;74.64
70841;BME280;58465;51.534;9.934;2023-06-22T03:01:28;100225.69;;;21.55;74.51
70841;BME280;58465;51.534;9.934;2023-06-22T03:03:55;100220.19;;;21.42;74.81
70841;BME280;58465;51.534;9.934;2023-06-22T03:06:21;100225.50;;;21.44;74.79
70841;BME280;58465;51.534;9.934;2023-06-22T03:08:51;100221.44;;;21.37;74.69
70841;BME280;58465;51.534;9.934;2023-06-22T03:11:16;100221.34;;;21.38;74.75
70841;BME280;58465;51.534;9.934;2023-06-22T03:13:41;100219.41;;;21.40;74.81
70841;BME280;58465;51.534;9.934;2023-06-22T03:16:07;100217.66;;;21.39;74.85
70841;BME280;58465;51.534;9.934;2023-06-22T03:18:32;100211.25;;;21.26;75.12
70841;BME280;58465;51.534;9.934;2023-06-22T03:20:57;100214.25;;;21.36;74.95
70841;BME280;58465;51.534;9.934;2023-06-22T03:23:22;100201.16;;;21.42;74.87
70841;BME280;58465;51.534;9.934;2023-06-22T03:25:47;100202.13;;;21.27;75.28
70841;BME280;58465;51.534;9.934;2023-06-22T03:28:13;100207.97;;;21.21;75.75
70841;BME280;58465;51.534;9.934;2023-06-22T03:30:38;100224.25;;;21.35;75.13
70841;BME280;58465;51.534;9.934;2023-06-22T03:33:03;100225.03;;;21.37;74.50
70841;BME280;58465;51.534;9.934;2023-06-22T03:35:29;100225.50;;;21.44;74.03
70841;BME280;58465;51.534;9.934;2023-06-22T03:37:54;100216.09;;;21.50;73.88
70841;BME280;58465;51.534;9.934;2023-06-22T03:40:19;100216.56;;;21.56;73.58
70841;BME280;58465;51.534;9.934;2023-06-22T03:42:45;100216.28;;;21.61;73.30
70841;BME280;58465;51.534;9.934;2023-06-22T03:45:11;100209.09;;;21.45;73.60
70841;BME280;58465;51.534;9.934;2023-06-22T03:47:36;100200.38;;;21.40;73.80
70841;BME280;58465;51.534;9.934;2023-06-22T03:50:01;100191.91;;;21.45;73.60
70841;BME280;58465;51.534;9.934;2023-06-22T03:52:28;100192.97;;;21.57;73.56
70841;BME280;58465;51.534;9.934;2023-06-22T03:54:54;100186.19;;;21.50;73.78
70841;BME280;58465;51.534;9.934;2023-06-22T03:57:19;100178.00;;;21.64;73.55
70841;BME280;58465;51.534;9.934;2023-06-22T03:59:44;100183.44;;;21.64;73.37
70841;BME280;58465;51.534;9.934;2023-06-22T04:02:09;100180.31;;;21.70;72.94
70841;BME280;58465;51.534;9.934;2023-06-22T04:04:35;100179.81;;;21.77;72.92
70841;BME280;58465;51.534;9.934;2023-06-22T04:07:00;100178.31;;;21.86;72.94
70841;BME280;58465;51.534;9.934;2023-06-22T04:09:26;100174.03;;;21.82;73.10
70841;BME280;58465;51.534;9.934;2023-06-22T04:11:52;100170.22;;;21.72;73.49
70841;BME280;58465;51.534;9.934;2023-06-22T04:14:17;100171.50;;;21.66;73.74
70841;BME280;58465;51.534;9.934;2023-06-22T04:16:42;100176.56;;;21.85;73.12
70841;BME280;58465;51.534;9.934;2023-06-22T04:19:08;100170.31;;;21.97;72.55
70841;BME280;58465;51.534;9.934;2023-06-22T04:21:39;100170.00;;;21.75;73.57
70841;BME280;58465;51.534;9.934;2023-06-22T04:24:04;100169.13;;;21.74;73.51
70841;BME280;58465;51.534;9.934;2023-06-22T04:26:29;100164.41;;;21.64;73.68
70841;BME280;58465;51.534;9.934;2023-06-22T04:28:55;100165.59;;;21.60;74.07
70841;BME280;58465;51.534;9.934;2023-06-22T04:31:20;100168.22;;;21.61;73.87
70841;BME280;58465;51.534;9.934;2023-06-22T04:33:46;100169.53;;;21.68;73.80
70841;BME280;58465;51.534;9.934;2023-06-22T04:36:11;100172.50;;;21.51;74.49
70841;BME280;58465;51.534;9.934;2023-06-22T04:38:40;100176.25;;;21.63;74.04
70841;BME280;58465;51.534;9.934;2023-06-22T04:41:05;100172.78;;;21.61;73.79
70841;BME280;58465;51.534;9.934;2023-06-22T04:43:31;100164.34;;;21.51;74.47
70841;BME280;58465;51.534;9.934;2023-06-22T04:45:57;100161.66;;;21.51;74.38
70841;BME280;58465;51.534;9.934;2023-06-22T04:48:28;100164.63;;;21.61;74.33
70841;BME280;58465;51.534;9.934;2023-06-22T04:50:59;100160.06;;;21.61;73.94
70841;BME280;58465;51.534;9.934;2023-06-22T04:53:28;100154.22;;;21.53;74.58
70841;BME280;58465;51.534;9.934;2023-06-22T04:55:57;100151.94;;;21.47;74.87
70841;BME280;58465;51.534;9.934;2023-06-22T04:58:26;100159.03;;;21.50;74.74
70841;BME280;58465;51.534;9.934;2023-06-22T05:00:57;100158.06;;;21.51;75.00
70841;BME280;58465;51.534;9.934;2023-06-22T05:03:25;100169.44;;;21.43;75.09
70841;BME280;58465;51.534;9.934;2023-06-22T05:05:51;100175.50;;;21.61;74.58
70841;BME280;58465;51.534;9.934;2023-06-22T05:08:17;100178.41;;;21.58;74.78
70841;BME280;58465;51.534;9.934;2023-06-22T05:10:42;100183.47;;;21.50;75.13
70841;BME280;58465;51.534;9.934;2023-06-22T05:13:08;100179.47;;;21.55;75.12
70841;BME280;58465;51.534;9.934;2023-06-22T05:15:33;100180.16;;;21.44;75.78
70841;BME280;58465;51.534;9.934;2023-06-22T05:18:04;100183.72;;;21.32;76.33
70841;BME280;58465;51.534;9.934;2023-06-22T05:20:30;100182.88;;;21.44;76.04
70841;BME280;58465;51.534;9.934;2023-06-22T05:22:55;100174.88;;;21.43;76.38
70841;BME280;58465;51.534;9.934;2023-06-22T05:25:21;100180.78;;;21.35;76.85
70841;BME280;58465;51.534;9.934;2023-06-22T05:27:46;100180.22;;;21.30;76.95
70841;BME280;58465;51.534;9.934;2023-06-22T05:30:11;100184.84;;;21.42;76.92
70841;BME280;58465;51.534;9.934;2023-06-22T05:32:37;100179.28;;;21.58;76.02
70841;BME280;58465;51.534;9.934;2023-06-22T05:35:03;100177.78;;;21.81;75.24
70841;BME280;58465;51.534;9.934;2023-06-22T05:37:29;100180.34;;;21.82;75.20
70841;BME280;58465;51.534;9.934;2023-06-22T05:39:54;100176.31;;;21.75;75.59
70841;BME280;58465;51.534;9.934;2023-06-22T05:42:20;100179.63;;;22.07;74.42
70841;BME280;58465;51.534;9.934;2023-06-22T05:44:46;100179.06;;;22.02;74.58
70841;BME280;58465;51.534;9.934;2023-06-22T05:47:12;100171.28;;;22.23;74.20
70841;BME280;58465;51.534;9.934;2023-06-22T05:49:38;100155.66;;;22.52;72.56
70841;BME280;58465;51.534;9.934;2023-06-22T05:52:03;100158.47;;;22.50;72.30
70841;BME280;58465;51.534;9.934;2023-06-22T05:54:29;100166.50;;;22.91;71.24
70841;BME280;58465;51.534;9.934;2023-06-22T05:56:54;100171.22;;;23.39;69.53
70841;BME280;58465;51.534;9.934;2023-06-22T05:59:19;100174.38;;;23.58;68.46
70841;BME280;58465;51.534;9.934;2023-06-22T06:01:44;100168.19;;;23.18;69.23
70841;BME280;58465;51.534;9.934;2023-06-22T06:04:11;100169.09;;;22.68;71.10
70841;BME280;58465;51.534;9.934;2023-06-22T06:06:37;100161.41;;;22.87;70.57
70841;BME280;58465;51.534;9.934;2023-06-22T06:09:04;100166.22;;;22.69;70.69
70841;BME280;58465;51.534;9.934;2023-06-22T06:11:29;100171.72;;;22.82;70.70
70841;BME280;58465;51.534;9.934;2023-06-22T06:13:54;100166.13;;;22.71;71.26
70841;BME280;58465;51.534;9.934;2023-06-22T06:16:20;100174.78;;;23.15;69.86
70841;BME280;58465;51.534;9.934;2023-06-22T06:18:45;100179.09;;;23.30;69.04
70841;BME280;58465;51.534;9.934;2023-06-22T06:21:11;100175.50;;;23.30;68.90
70841;BME280;58465;51.534;9.934;2023-06-22T06:23:36;100175.91;;;23.49;68.52
70841;BME280;58465;51.534;9.934;2023-06-22T06:26:01;100174.84;;;23.76;67.54
70841;BME280;58465;51.534;9.934;2023-06-22T06:28:27;100173.81;;;23.89;67.38
70841;BME280;58465;51.534;9.934;2023-06-22T06:30:52;100173.84;;;23.77;67.35
70841;BME280;58465;51.534;9.934;2023-06-22T06:33:19;100167.28;;;23.43;68.89
70841;BME280;58465;51.534;9.934;2023-06-22T06:35:45;100153.56;;;23.44;68.93
70841;BME280;58465;51.534;9.934;2023-06-22T06:38:11;100158.66;;;23.49;68.89
70841;BME280;58465;51.534;9.934;2023-06-22T06:40:36;100160.22;;;23.77;68.19
70841;BME280;58465;51.534;9.934;2023-06-22T06:43:01;100161.22;;;24.58;65.57
70841;BME280;58465;51.534;9.934;2023-06-22T06:45:27;100150.16;;;24.71;64.67
70841;BME280;58465;51.534;9.934;2023-06-22T06:47:53;100162.56;;;24.53;65.47
70841;BME280;58465;51.534;9.934;2023-06-22T06:50:19;100154.66;;;24.83;64.30
70841;BME280;58465;51.534;9.934;2023-06-22T06:52:45;100158.81;;;25.22;62.91
70841;BME280;58465;51.534;9.934;2023-06-22T06:55:10;100158.84;;;26.31;60.09
70841;BME280;58465;51.534;9.934;2023-06-22T06:57:41;100169.06;;;26.29;59.03
70841;BME280;58465;51.534;9.934;2023-06-22T07:00:08;100171.13;;;26.04;59.67
70841;BME280;58465;51.534;9.934;2023-06-22T07:02:39;100168.09;;;26.18;59.55
70841;BME280;58465;51.534;9.934;2023-06-22T07:05:05;100153.59;;;26.39;59.11
70841;BME280;58465;51.534;9.934;2023-06-22T07:07:31;100148.28;;;26.15;59.39
70841;BME280;58465;51.534;9.934;2023-06-22T07:09:57;100145.63;;;26.56;58.59
70841;BME280;58465;51.534;9.934;2023-06-22T07:12:22;100153.69;;;26.05;59.33
70841;BME280;58465;51.534;9.934;2023-06-22T07:14:48;100154.28;;;26.52;58.44
70841;BME280;58465;51.534;9.934;2023-06-22T07:17:13;100154.56;;;26.06;59.18
70841;BME280;58465;51.534;9.934;2023-06-22T07:19:38;100145.75;;;26.34;58.71
70841;BME280;58465;51.534;9.934;2023-06-22T07:22:05;100134.94;;;26.74;57.47
70841;BME280;58465;51.534;9.934;2023-06-22T07:24:30;100130.81;;;26.59;57.94
70841;BME280;58465;51.534;9.934;2023-06-22T07:26:57;100135.81;;;26.95;56.62
70841;BME280;58465;51.534;9.934;2023-06-22T07:29:24;100131.91;;;27.28;55.99
70841;BME280;58465;51.534;9.934;2023-06-22T07:31:50;100133.59;;;27.60;54.96
70841;BME280;58465;51.534;9.934;2023-06-22T07:34:16;100131.31;;;27.55;55.28
70841;BME280;58465;51.534;9.934;2023-06-22T07:36:43;100128.75;;;27.33;55.09
70841;BME280;58465;51.534;9.934;2023-06-22T07:39:08;100133.97;;;27.36;55.31
70841;BME280;58465;51.534;9.934;2023-06-22T07:41:33;100122.69;;;27.29;55.45
70841;BME280;58465;51.534;9.934;2023-06-22T07:43:59;100119.84;;;27.50;54.77
70841;BME280;58465;51.534;9.934;2023-06-22T07:46:24;100124.13;;;27.83;53.96
70841;BME280;58465;51.534;9.934;2023-06-22T07:48:49;100124.69;;;27.58;54.69
70841;BME280;58465;51.534;9.934;2023-06-22T07:51:15;100119.34;;;27.26;55.40
70841;BME280;58465;51.534;9.934;2023-06-22T07:53:44;100115.66;;;27.06;55.94
70841;BME280;58465;51.534;9.934;2023-06-22T07:56:13;100113.41;;;27.70;54.13
70841;BME280;58465;51.534;9.934;2023-06-22T07:58:38;100119.22;;;27.87;51.51
70841;BME280;58465;51.534;9.934;2023-06-22T08:01:04;100121.81;;;28.07;50.91
70841;BME280;58465;51.534;9.934;2023-06-22T08:03:29;100125.88;;;27.94;50.78
70841;BME280;58465;51.534;9.934;2023-06-22T08:05:55;100121.16;;;28.25;49.18
70841;BME280;58465;51.534;9.934;2023-06-22T08:08:21;100117.31;;;28.64;47.06
70841;BME280;58465;51.534;9.934;2023-06-22T08:10:46;100115.88;;;28.79;47.07
70841;BME280;58465;51.534;9.934;2023-06-22T08:13:11;100110.41;;;29.07;45.58
70841;BME280;58465;51.534;9.934;2023-06-22T08:15:37;100118.03;;;29.13;46.30
70841;BME280;58465;51.534;9.934;2023-06-22T08:18:02;100122.69;;;29.12;45.83
70841;BME280;58465;51.534;9.934;2023-06-22T08:20:28;100116.38;;;29.02;46.17
70841;BME280;58465;51.534;9.934;2023-06-22T08:22:55;100117.03;;;28.77;46.40
70841;BME280;58465;51.534;9.934;2023-06-22T08:25:20;100110.38;;;28.79;46.14
70841;BME280;58465;51.534;9.934;2023-06-22T08:27:47;100112.75;;;28.26;47.44
70841;BME280;58465;51.534;9.934;2023-06-22T08:30:15;100108.69;;;28.40;47.44
70841;BME280;58465;51.534;9.934;2023-06-22T08:32:41;100111.38;;;28.78;47.81
70841;BME280;58465;51.534;9.934;2023-06-22T08:35:07;100106.41;;;29.01;47.38
70841;BME280;58465;51.534;9.934;2023-06-22T08:37:36;100094.69;;;28.99;48.48
70841;BME280;58465;51.534;9.934;2023-06-22T08:40:03;100082.47;;;28.55;49.26
70841;BME280;58465;51.534;9.934;2023-06-22T08:42:30;100092.22;;;28.96;48.47
70841;BME280;58465;51.534;9.934;2023-06-22T08:44:56;100080.25;;;29.15;47.54
70841;BME280;58465;51.534;9.934;2023-06-22T08:47:22;100079.63;;;29.31;46.83
70841;BME280;58465;51.534;9.934;2023-06-22T08:49:48;100084.91;;;29.14;46.81
70841;BME280;58465;51.534;9.934;2023-06-22T08:52:13;100078.81;;;29.48;46.04
70841;BME280;58465;51.534;9.934;2023-06-22T08:54:39;100078.84;;;29.66;45.33
70841;BME280;58465;51.534;9.934;2023-06-22T08:57:04;100081.28;;;29.69;44.86
70841;BME280;58465;51.534;9.934;2023-06-22T08:59:31;100080.97;;;29.89;44.91
70841;BME280;58465;51.534;9.934;2023-06-22T09:01:56;100078.72;;;30.03;44.35
70841;BME280;58465;51.534;9.934;2023-06-22T09:04:22;100074.19;;;29.48;45.72
70841;BME280;58465;51.534;9.934;2023-06-22T09:06:48;100077.03;;;29.29;46.01
70841;BME280;58465;51.534;9.934;2023-06-22T09:09:16;100075.03;;;28.85;46.79
70841;BME280;58465;51.534;9.934;2023-06-22T09:11:41;100065.44;;;28.98;46.72
70841;BME280;58465;51.534;9.934;2023-06-22T09:14:07;100069.41;;;29.13;46.52
70841;BME280;58465;51.534;9.934;2023-06-22T09:16:34;100066.22;;;29.18;46.15
70841;BME280;58465;51.534;9.934;2023-06-22T09:18:59;100061.53;;;29.28;46.50
70841;BME280;58465;51.534;9.934;2023-06-22T09:21:24;100062.69;;;29.26;46.45
70841;BME280;58465;51.534;9.934;2023-06-22T09:23:50;100052.22;;;29.39;46.28
70841;BME280;58465;51.534;9.934;2023-06-22T09:26:19;100044.38;;;29.62;46.08
70841;BME280;58465;51.534;9.934;2023-06-22T09:28:45;100031.63;;;29.61;45.90
70841;BME280;58465;51.534;9.934;2023-06-22T09:31:11;100029.59;;;29.63;45.94
70841;BME280;58465;51.534;9.934;2023-06-22T09:33:37;100025.22;;;29.87;45.56
70841;BME280;58465;51.534;9.934;2023-06-22T09:36:05;100033.41;;;29.97;45.84
70841;BME280;58465;51.534;9.934;2023-06-22T09:38:37;100025.81;;;29.81;45.68
70841;BME280;58465;51.534;9.934;2023-06-22T09:41:04;100031.56;;;29.70;46.03
70841;BME280;58465;51.534;9.934;2023-06-22T09:43:32;100020.47;;;29.62;46.58
70841;BME280;58465;51.534;9.934;2023-06-22T09:45:57;100019.53;;;29.89;46.01
70841;BME280;58465;51.534;9.934;2023-06-22T09:48:22;100017.31;;;30.10;45.61
70841;BME280;58465;51.534;9.934;2023-06-22T09:50:48;100012.69;;;30.11;45.26
70841;BME280;58465;51.534;9.934;2023-06-22T09:53:13;100013.09;;;30.42;44.84
70841;BME280;58465;51.534;9.934;2023-06-22T09:55:38;100004.56;;;30.53;44.43
70841;BME280;58465;51.534;9.934;2023-06-22T09:58:04;100000.06;;;30.86;44.14
70841;BME280;58465;51.534;9.934;2023-06-22T10:00:29;100011.22;;;30.76;43.46
70841;BME280;58465;51.534;9.934;2023-06-22T10:02:54;100019.19;;;30.28;44.11
70841;BME280;58465;51.534;9.934;2023-06-22T10:05:21;100020.47;;;30.41;43.82
70841;BME280;58465;51.534;9.934;2023-06-22T10:07:46;100015.03;;;30.49;43.90
70841;BME280;58465;51.534;9.934;2023-06-22T10:10:12;100006.03;;;30.47;43.77
70841;BME280;58465;51.534;9.934;2023-06-22T10:12:45;100010.97;;;30.53;43.76
70841;BME280;58465;51.534;9.934;2023-06-22T10:15:11;100005.81;;;30.58;43.74
70841;BME280;58465;51.534;9.934;2023-06-22T10:17:36;99993.06;;;30.91;42.97
70841;BME280;58465;51.534;9.934;2023-06-22T10:20:02;99992.25;;;31.07;42.68
70841;BME280;58465;51.534;9.934;2023-06-22T10:22:35;99985.94;;;30.81;43.07
70841;BME280;58465;51.534;9.934;2023-06-22T10:25:01;99995.16;;;31.06;42.44
70841;BME280;58465;51.534;9.934;2023-06-22T10:27:27;99983.22;;;31.39;41.69
70841;BME280;58465;51.534;9.934;2023-06-22T10:29:53;99988.03;;;31.21;41.54
70841;BME280;58465;51.534;9.934;2023-06-22T10:32:19;99981.84;;;30.93;42.48
70841;BME280;58465;51.534;9.934;2023-06-22T10:34:44;99986.53;;;31.01;42.43
70841;BME280;58465;51.534;9.934;2023-06-22T10:37:09;99971.78;;;31.10;41.75
70841;BME280;58465;51.534;9.934;2023-06-22T10:39:35;99961.78;;;31.17;41.49
70841;BME280;58465;51.534;9.934;2023-06-22T10:42:00;99954.91;;;31.13;41.38
70841;BME280;58465;51.534;9.934;2023-06-22T10:44:25;99951.47;;;31.27;41.35
70841;BME280;58465;51.534;9.934;2023-06-22T10:46:50;99955.94;;;31.20;41.29
70841;BME280;58465;51.534;9.934;2023-06-22T10:49:16;99956.66;;;31.30;41.23
70841;BME280;58465;51.534;9.934;2023-06-22T10:51:41;99957.38;;;31.48;41.29
70841;BME280;58465;51.534;9.934;2023-06-22T10:54:07;99946.50;;;31.55;40.70
70841;BME280;58465;51.534;9.934;2023-06-22T10:56:32;99951.16;;;32.11;40.05
70841;BME280;58465;51.534;9.934;2023-06-22T10:58:59;99949.44;;;32.02;39.49
70841;BME280;58465;51.534;9.934;2023-06-22T11:01:24;99943.75;;;32.03;39.77
70841;BME280;58465;51.534;9.934;2023-06-22T11:03:49;99942.88;;;32.03;40.04
70841;BME280;58465;51.534;9.934;2023-06-22T11:06:15;99940.47;;;32.08;39.36
70841;BME280;58465;51.534;9.934;2023-06-22T11:08:44;99936.75;;;32.56;38.56
70841;BME280;58465;51.534;9.934;2023-06-22T11:11:11;99936.31;;;32.20;37.28
70841;BME280;58465;51.534;9.934;2023-06-22T11:13:37;99932.72;;;31.95;38.18
70841;BME280;58465;51.534;9.934;2023-06-22T11:16:02;99937.91;;;31.98;38.28
70841;BME280;58465;51.534;9.934;2023-06-22T11:18:28;99942.88;;;32.03;38.16
70841;BME280;58465;51.534;9.934;2023-06-22T11:20:53;99928.94;;;31.88;37.85
70841;BME280;58465;51.534;9.934;2023-06-22T11:23:18;99915.44;;;31.93;38.07
70841;BME280;58465;51.534;9.934;2023-06-22T11:25:44;99907.47;;;32.31;38.11
70841;BME280;58465;51.534;9.934;2023-06-22T11:28:09;99904.78;;;32.54;37.79
70841;BME280;58465;51.534;9.934;2023-06-22T11:30:35;99897.59;;;32.36;38.51
70841;BME280;58465;51.534;9.934;2023-06-22T11:33:00;99903.38;;;32.66;38.49
70841;BME280;58465;51.534;9.934;2023-06-22T11:35:26;99892.34;;;32.97;37.61
70841;BME280;58465;51.534;9.934;2023-06-22T11:37:51;99885.50;;;33.07;37.70
70841;BME280;58465;51.534;9.934;2023-06-22T11:40:16;99878.06;;;33.39;36.71
70841;BME280;58465;51.534;9.934;2023-06-22T11:42:42;99878.16;;;33.68;36.39
70841;BME280;58465;51.534;9.934;2023-06-22T11:45:08;99874.25;;;33.40;37.35
70841;BME280;58465;51.534;9.934;2023-06-22T11:47:33;99870.66;;;34.29;35.50
70841;BME280;58465;51.534;9.934;2023-06-22T11:49:58;99863.16;;;35.24;34.09
70841;BME280;58465;51.534;9.934;2023-06-22T11:52:24;99860.13;;;35.05;33.77
70841;BME280;58465;51.534;9.934;2023-06-22T11:54:51;99856.81;;;33.77;35.93
70841;BME280;58465;51.534;9.934;2023-06-22T11:57:16;99842.13;;;33.53;36.28
70841;BME280;58465;51.534;9.934;2023-06-22T11:59:42;99844.50;;;33.94;35.78
70841;BME280;58465;51.534;9.934;2023-06-22T12:02:07;99851.91;;;34.02;34.50
70841;BME280;58465;51.534;9.934;2023-06-22T12:04:34;99835.56;;;33.69;35.10
70841;BME280;58465;51.534;9.934;2023-06-22T12:07:00;99836.31;;;35.31;32.97
70841;BME280;58465;51.534;9.934;2023-06-22T12:09:32;99832.09;;;34.99;32.75
70841;BME280;58465;51.534;9.934;2023-06-22T12:11:58;99828.19;;;34.58;33.29
70841;BME280;58465;51.534;9.934;2023-06-22T12:14:23;99826.22;;;36.01;30.77
70841;BME280;58465;51.534;9.934;2023-06-22T12:16:51;99819.81;;;35.73;31.73
70841;BME280;58465;51.534;9.934;2023-06-22T12:19:17;99814.84;;;36.24;30.27
70841;BME280;58465;51.534;9.934;2023-06-22T12:21:42;99807.06;;;35.14;31.65
70841;BME280;58465;51.534;9.934;2023-06-22T12:24:12;99813.66;;;36.12;30.80
70841;BME280;58465;51.534;9.934;2023-06-22T12:26:38;99800.03;;;35.61;31.02
70841;BME280;58465;51.534;9.934;2023-06-22T12:29:03;99789.41;;;35.22;31.05
70841;BME280;58465;51.534;9.934;2023-06-22T12:31:28;99789.88;;;36.02;30.00
70841;BME280;58465;51.534;9.934;2023-06-22T12:33:54;99783.47;;;38.03;27.34
70841;BME280;58465;51.534;9.934;2023-06-22T12:36:19;99779.00;;;36.07;29.58
70841;BME280;58465;51.534;9.934;2023-06-22T12:38:44;99777.16;;;34.38;32.69
70841;BME280;58465;51.534;9.934;2023-06-22T12:41:10;99778.41;;;33.91;33.32
70841;BME280;58465;51.534;9.934;2023-06-22T12:43:35;99759.28;;;33.96;32.67
70841;BME280;58465;51.534;9.934;2023-06-22T12:46:00;99763.09;;;34.24;32.58
70841;BME280;58465;51.534;9.934;2023-06-22T12:48:27;99763.09;;;34.24;32.46
70841;BME280;58465;51.534;9.934;2023-06-22T12:50:53;99769.78;;;35.23;30.90